Time;durP1;ratioP1;P1;durP2;ratioP2;P2;SDS_P1;SDS_P2;PMS_P1;PMS_P2;Temp;Humidity;BMP_temperature;BMP_pressure;BME280_temperature;BME280_humidity;BME280_pressure;Samples;Min_cycle;Max_cycle;Signal;HPM_P1;HPM_P2
2023/05/19 00:01:28;;;;;;;12.60;11.20;;;;;;;7.46;100.00;97505.27;109201;1266;22544;-80
2023/05/19 00:04:02;;;;;;;13.00;11.50;;;;;;;7.44;100.00;97503.31;109178;1272;22589;-80
2023/05/19 00:06:35;;;;;;;14.70;12.20;;;;;;;7.41;100.00;97506.86;109169;1266;22520;-80
2023/05/19 00:09:08;;;;;;;13.60;11.70;;;;;;;7.43;100.00;97506.67;109172;1266;22512;-80
2023/05/19 00:11:40;;;;;;;12.50;11.20;;;;;;;7.43;100.00;97507.42;109174;1251;22703;-80
2023/05/19 00:14:11;;;;;;;13.40;12.00;;;;;;;7.43;100.00;97507.05;109220;1272;22942;-80
2023/05/19 00:16:43;;;;;;;13.80;10.90;;;;;;;7.43;100.00;97508.73;109205;1266;22517;-80
2023/05/19 00:19:15;;;;;;;15.40;11.50;;;;;;;7.42;100.00;97505.45;109133;1272;22520;-80
2023/05/19 00:21:46;;;;;;;16.60;12.50;;;;;;;7.43;100.00;97502.24;109142;1272;22578;-80
2023/05/19 00:24:17;;;;;;;15.30;11.70;;;;;;;7.43;100.00;97495.70;109142;1272;24199;-80
2023/05/19 00:26:48;;;;;;;13.60;12.20;;;;;;;7.43;100.00;97489.48;109181;1272;25246;-80
2023/05/19 00:29:19;;;;;;;15.00;12.60;;;;;;;7.45;100.00;97492.20;109221;1269;22653;-80
2023/05/19 00:31:50;;;;;;;15.20;11.90;;;;;;;7.46;100.00;97492.65;109173;1272;23936;-80
2023/05/19 00:34:20;;;;;;;12.80;11.10;;;;;;;7.46;100.00;97495.77;109125;1272;22520;-80
2023/05/19 00:36:51;;;;;;;15.10;12.30;;;;;;;7.41;100.00;97501.38;109159;1266;22772;-80
2023/05/19 00:39:22;;;;;;;16.10;11.70;;;;;;;7.39;100.00;97503.55;109092;1272;22462;-80
2023/05/19 00:41:53;;;;;;;16.00;12.10;;;;;;;7.40;100.00;97501.98;109180;1272;22594;-80
2023/05/19 00:44:24;;;;;;;17.20;13.10;;;;;;;7.40;100.00;97497.39;109159;1272;25414;-80
2023/05/19 00:46:55;;;;;;;15.60;12.40;;;;;;;7.40;100.00;97499.14;109154;1269;22466;-80
2023/05/19 00:49:25;;;;;;;16.60;13.20;;;;;;;7.40;100.00;97497.30;109100;1272;22529;-80
2023/05/19 00:51:57;;;;;;;20.50;12.90;;;;;;;7.41;100.00;97493.98;109163;1269;22577;-80
2023/05/19 00:54:29;;;;;;;18.50;13.90;;;;;;;7.43;100.00;97491.80;109143;1267;25393;-80
2023/05/19 00:57:00;;;;;;;16.90;12.80;;;;;;;7.44;100.00;97488.40;109100;1272;139840;-80
2023/05/19 00:59:32;;;;;;;18.30;13.20;;;;;;;7.47;100.00;97488.62;109154;1266;22525;-80
2023/05/19 01:02:03;;;;;;;18.50;14.40;;;;;;;7.48;100.00;97485.58;109170;1272;24234;-80
2023/05/19 01:04:36;;;;;;;19.20;13.90;;;;;;;7.50;100.00;97481.40;109146;1273;22476;-80
2023/05/19 01:07:07;;;;;;;18.70;14.40;;;;;;;7.51;100.00;97481.55;109170;1272;22568;-80
2023/05/19 01:09:39;;;;;;;19.00;13.90;;;;;;;7.51;100.00;97478.55;109154;1272;22536;-80
2023/05/19 01:12:10;;;;;;;19.80;12.80;;;;;;;7.50;100.00;97480.27;109109;1272;23744;-80
2023/05/19 01:14:42;;;;;;;19.30;13.60;;;;;;;7.48;100.00;97483.89;109142;1265;23104;-80
2023/05/19 01:17:21;;;;;;;16.80;12.60;;;;;;;7.44;100.00;97483.50;109202;1265;24170;-80
2023/05/19 01:20:06;;;;;;;24.60;12.40;;;;;;;7.43;100.00;97489.58;109117;1270;23160;-80
2023/05/19 01:23:04;;;;;;;21.00;13.00;;;;;;;7.38;100.00;97485.76;109182;1267;22676;-80
2023/05/19 01:26:02;;;;;;;16.50;11.60;;;;;;;7.39;100.00;97484.66;109104;1266;22539;-80
2023/05/19 01:29:04;;;;;;;23.00;12.10;;;;;;;7.41;100.00;97482.16;109183;1262;24343;-80
2023/05/19 01:31:36;;;;;;;25.00;11.20;;;;;;;7.38;100.00;97484.45;109149;1272;22508;-80
2023/05/19 01:34:09;;;;;;;17.00;11.60;;;;;;;7.34;100.00;97487.02;109162;1250;22518;-80
2023/05/19 01:36:43;;;;;;;22.60;11.70;;;;;;;7.31;100.00;97486.66;109201;1266;22553;-80
2023/05/19 01:39:15;;;;;;;28.80;12.00;;;;;;;7.27;100.00;97488.45;109112;1272;22531;-80
2023/05/19 01:41:47;;;;;;;20.90;12.00;;;;;;;7.24;100.00;97492.60;109173;1272;22569;-80
2023/05/19 01:44:19;;;;;;;19.50;12.80;;;;;;;7.21;100.00;97488.65;109174;1269;25250;-80
2023/05/19 01:46:50;;;;;;;24.60;12.00;;;;;;;7.21;100.00;97488.13;109217;1266;25881;-80
2023/05/19 01:49:21;;;;;;;26.70;12.60;;;;;;;7.22;100.00;97485.41;109158;1269;25275;-80
2023/05/19 01:51:54;;;;;;;23.50;12.20;;;;;;;7.23;100.00;97477.52;109180;1266;22550;-80
2023/05/19 01:54:25;;;;;;;28.30;11.60;;;;;;;7.21;100.00;97476.84;109176;1266;22472;-80
2023/05/19 01:57:10;;;;;;;21.00;12.30;;;;;;;7.22;100.00;97477.96;109176;1266;22517;-80
2023/05/19 01:59:57;;;;;;;18.80;12.60;;;;;;;7.22;100.00;97476.98;109219;1272;25436;-80
2023/05/19 02:02:44;;;;;;;29.50;11.60;;;;;;;7.23;100.00;97475.77;109165;1272;22545;-80
2023/05/19 02:05:28;;;;;;;61.60;13.60;;;;;;;7.20;100.00;97474.34;109211;1266;22479;-80
2023/05/19 02:08:06;;;;;;;38.90;12.20;;;;;;;7.17;100.00;97470.31;109181;1251;22523;-80
2023/05/19 02:10:42;;;;;;;17.30;12.30;;;;;;;7.18;100.00;97469.42;109128;1266;22584;-80
2023/05/19 02:13:18;;;;;;;18.50;12.70;;;;;;;7.21;100.00;97467.92;109157;1272;22483;-80
2023/05/19 02:15:51;;;;;;;16.80;12.40;;;;;;;7.23;100.00;97469.23;109215;1270;22473;-80
2023/05/19 02:18:23;;;;;;;41.80;11.40;;;;;;;7.24;100.00;97467.40;109134;1272;22538;-80
2023/05/19 02:20:54;;;;;;;22.70;12.10;;;;;;;7.21;100.00;97470.98;109160;1266;22486;-80
2023/05/19 02:23:25;;;;;;;14.20;10.70;;;;;;;7.18;100.00;97466.58;109141;1272;22563;-80
2023/05/19 02:25:56;;;;;;;14.70;11.10;;;;;;;7.17;100.00;97466.11;109204;1272;22978;-80
2023/05/19 02:28:27;;;;;;;23.60;10.80;;;;;;;7.15;100.00;97467.55;109143;1273;22563;-80
2023/05/19 02:30:58;;;;;;;47.50;11.50;;;;;;;7.15;100.00;97465.90;109134;1265;22555;-80
2023/05/19 02:33:29;;;;;;;62.30;12.30;;;;;;;7.11;100.00;97468.21;109125;1273;24225;-80
2023/05/19 02:36:00;;;;;;;89.50;13.00;;;;;;;7.09;100.00;97466.23;109153;1266;24389;-80
2023/05/19 02:38:31;;;;;;;21.80;13.00;;;;;;;7.11;100.00;97464.05;109173;1272;22730;-80
2023/05/19 02:41:02;;;;;;;17.10;13.10;;;;;;;7.13;100.00;97461.44;109163;1273;22656;-80
2023/05/19 02:43:33;;;;;;;21.10;12.10;;;;;;;7.12;100.00;97460.44;109201;1266;22576;-80
2023/05/19 02:46:04;;;;;;;19.80;13.50;;;;;;;7.16;100.00;97460.28;109160;1266;22575;-80
2023/05/19 02:48:35;;;;;;;26.50;14.60;;;;;;;7.18;100.00;97460.17;109151;1272;22539;-80
2023/05/19 02:51:06;;;;;;;42.50;13.70;;;;;;;7.22;100.00;97455.29;109137;1272;22591;-80
2023/05/19 02:53:37;;;;;;;28.00;14.10;;;;;;;7.23;100.00;97457.42;109111;1272;22526;-80
2023/05/19 02:56:08;;;;;;;38.60;14.40;;;;;;;7.22;100.00;97458.30;109223;1272;22563;-80
2023/05/19 02:58:41;;;;;;;71.90;15.40;;;;;;;7.22;100.00;97459.04;109187;1272;22646;-80
2023/05/19 03:01:12;;;;;;;46.30;15.30;;;;;;;7.23;100.00;97457.77;109146;1272;22534;-80
2023/05/19 03:03:43;;;;;;;48.10;13.80;;;;;;;7.21;100.00;97462.71;109130;1272;25905;-80
2023/05/19 03:06:16;;;;;;;40.00;14.60;;;;;;;7.20;100.00;97463.70;109145;1266;22541;-80
2023/05/19 03:08:47;;;;;;;30.00;13.30;;;;;;;7.21;100.00;97463.17;109202;1272;22563;-80
2023/05/19 03:11:18;;;;;;;22.50;14.30;;;;;;;7.22;100.00;97461.52;109181;1250;24342;-79
2023/05/19 03:13:49;;;;;;;20.30;12.80;;;;;;;7.23;100.00;97462.58;109211;1266;23219;-80
2023/05/19 03:16:20;;;;;;;18.30;13.30;;;;;;;7.23;100.00;97459.73;109108;1269;24192;-80
2023/05/19 03:18:51;;;;;;;22.30;13.00;;;;;;;7.26;100.00;97458.67;109207;1266;22531;-80
2023/05/19 03:21:22;;;;;;;36.20;12.90;;;;;;;7.28;100.00;97457.97;109167;1272;24241;-80
2023/05/19 03:23:54;;;;;;;61.10;13.70;;;;;;;7.30;100.00;97458.58;109209;1266;24015;-80
2023/05/19 03:26:25;;;;;;;20.00;13.00;;;;;;;7.28;100.00;97458.13;109137;1272;23334;-80
2023/05/19 03:28:55;;;;;;;16.60;12.00;;;;;;;7.27;100.00;97461.02;109166;1272;23910;-80
2023/05/19 03:31:27;;;;;;;25.10;12.30;;;;;;;7.28;100.00;97461.08;109204;1266;22482;-80
2023/05/19 03:33:58;;;;;;;27.80;12.90;;;;;;;7.31;100.00;97466.41;109152;1262;25243;-80
2023/05/19 03:36:31;;;;;;;25.90;13.90;;;;;;;7.31;100.00;97467.27;109160;1266;22581;-80
2023/05/19 03:39:02;;;;;;;26.10;13.70;;;;;;;7.32;100.00;97464.29;109204;1272;22688;-80
2023/05/19 03:41:33;;;;;;;18.90;12.50;;;;;;;7.34;100.00;97466.13;109215;1272;23387;-80
2023/05/19 03:44:04;;;;;;;15.80;12.80;;;;;;;7.35;100.00;97462.17;109110;1271;22967;-80
2023/05/19 03:46:35;;;;;;;20.50;13.00;;;;;;;7.35;100.00;97463.86;109169;1272;22743;-80
2023/05/19 03:49:06;;;;;;;19.30;12.80;;;;;;;7.34;100.00;97468.86;109175;1272;22603;-81
2023/05/19 03:51:37;;;;;;;51.40;13.20;;;;;;;7.33;100.00;97466.63;109171;1273;22581;-80
2023/05/19 03:54:08;;;;;;;35.10;13.40;;;;;;;7.33;100.00;97465.58;109164;1272;22478;-80
2023/05/19 03:56:42;;;;;;;15.90;12.20;;;;;;;7.37;100.00;97466.47;109204;1272;22527;-80
2023/05/19 03:59:13;;;;;;;16.60;12.50;;;;;;;7.40;100.00;97462.98;109139;1273;25250;-80
2023/05/19 04:01:45;;;;;;;17.30;12.40;;;;;;;7.42;100.00;97460.92;109156;1266;22542;-80
2023/05/19 04:04:16;;;;;;;14.30;11.30;;;;;;;7.45;100.00;97460.77;109209;1260;22463;-80
2023/05/19 04:06:47;;;;;;;15.60;11.90;;;;;;;7.49;100.00;97463.96;109162;1272;22525;-80
2023/05/19 04:09:18;;;;;;;18.10;13.40;;;;;;;7.51;100.00;97464.09;109153;1250;22541;-80
2023/05/19 04:11:49;;;;;;;15.70;12.10;;;;;;;7.53;100.00;97465.23;109157;1266;22540;-80
2023/05/19 04:14:20;;;;;;;17.00;12.10;;;;;;;7.55;100.00;97466.91;109217;1272;25323;-80
2023/05/19 04:16:51;;;;;;;16.40;11.30;;;;;;;7.59;100.00;97471.19;109112;1266;22523;-80
2023/05/19 04:19:22;;;;;;;16.00;12.10;;;;;;;7.62;100.00;97469.36;109161;1266;24015;-80
2023/05/19 04:21:53;;;;;;;14.40;11.20;;;;;;;7.66;100.00;97470.84;109113;1266;22750;-80
2023/05/19 04:24:26;;;;;;;14.80;11.20;;;;;;;7.67;100.00;97472.92;109218;1266;22507;-80
2023/05/19 04:27:01;;;;;;;14.40;11.10;;;;;;;7.67;100.00;97474.98;109125;1271;22993;-80
2023/05/19 04:29:32;;;;;;;14.00;10.40;;;;;;;7.70;100.00;97478.61;109173;1272;22759;-80
2023/05/19 04:32:06;;;;;;;15.50;11.70;;;;;;;7.74;100.00;97474.31;109206;1272;22532;-80
2023/05/19 04:34:39;;;;;;;14.10;10.70;;;;;;;7.77;100.00;97478.69;109189;1265;22515;-80
2023/05/19 04:37:10;;;;;;;14.10;10.90;;;;;;;7.79;100.00;97479.03;109143;1272;23998;-80
2023/05/19 04:39:42;;;;;;;14.70;11.50;;;;;;;7.80;100.00;97475.89;109158;1266;22576;-80
2023/05/19 04:42:13;;;;;;;14.70;10.70;;;;;;;7.84;100.00;97469.98;109169;1266;23816;-80
2023/05/19 04:44:44;;;;;;;14.60;10.80;;;;;;;7.89;100.00;97467.95;109158;1269;24156;-80
2023/05/19 04:47:15;;;;;;;12.00;9.90;;;;;;;7.93;100.00;97472.17;109196;1272;22554;-80
2023/05/19 04:49:46;;;;;;;12.00;10.00;;;;;;;7.96;100.00;97473.83;109133;1250;22502;-80
2023/05/19 04:52:20;;;;;;;13.80;9.60;;;;;;;7.99;100.00;97472.54;109170;1272;22526;-80
2023/05/19 04:54:51;;;;;;;10.80;9.20;;;;;;;8.01;100.00;97472.24;109168;1265;23674;-80
2023/05/19 04:57:22;;;;;;;11.50;9.10;;;;;;;8.04;100.00;97471.63;109166;1272;22514;-80
2023/05/19 04:59:58;;;;;;;12.90;10.40;;;;;;;8.10;100.00;97470.86;109159;1266;25405;-80
2023/05/19 05:02:30;;;;;;;12.20;9.20;;;;;;;8.15;100.00;97472.89;109208;1268;22651;-80
2023/05/19 05:05:04;;;;;;;10.60;8.90;;;;;;;8.19;100.00;97467.43;109178;1265;25404;-80
2023/05/19 05:07:35;;;;;;;13.10;9.50;;;;;;;8.24;100.00;97466.38;109194;1272;22491;-80
2023/05/19 05:10:08;;;;;;;13.50;9.40;;;;;;;8.26;100.00;97469.95;109155;1272;22586;-80
2023/05/19 05:12:40;;;;;;;9.80;7.60;;;;;;;8.29;100.00;97473.23;109197;1270;22567;-80
2023/05/19 05:15:13;;;;;;;10.20;8.40;;;;;;;8.30;100.00;97469.34;109160;1266;22478;-80
2023/05/19 05:17:45;;;;;;;12.00;8.50;;;;;;;8.31;100.00;97471.20;109207;1266;25278;-80
2023/05/19 05:20:19;;;;;;;30.10;25.90;;;;;;;8.32;100.00;97472.22;109168;1272;22583;-80
2023/05/19 05:22:51;;;;;;;18.60;14.70;;;;;;;8.35;100.00;97471.48;109190;1272;22526;-80
2023/05/19 05:25:24;;;;;;;63.40;32.20;;;;;;;8.38;100.00;97473.38;109164;1273;24210;-80
2023/05/19 05:27:55;;;;;;;64.40;30.10;;;;;;;8.42;100.00;97475.33;109122;1266;22606;-80
2023/05/19 05:30:26;;;;;;;32.30;18.50;;;;;;;8.46;100.00;97473.50;109137;1272;22507;-80
2023/05/19 05:32:57;;;;;;;38.30;21.80;;;;;;;8.47;100.00;97476.52;109213;1266;23757;-80
2023/05/19 05:35:29;;;;;;;25.00;18.80;;;;;;;8.48;100.00;97474.53;109141;1272;22521;-80
2023/05/19 05:38:00;;;;;;;27.00;18.30;;;;;;;8.52;100.00;97475.64;109183;1272;24309;-80
2023/05/19 05:40:31;;;;;;;37.00;22.10;;;;;;;8.56;100.00;97477.64;109128;1273;22571;-80
2023/05/19 05:43:02;;;;;;;30.30;18.50;;;;;;;8.59;100.00;97478.48;109174;1266;24324;-80
2023/05/19 05:45:33;;;;;;;20.80;13.50;;;;;;;8.59;100.00;97481.19;109183;1266;22461;-80
2023/05/19 05:48:06;;;;;;;20.30;18.40;;;;;;;8.60;100.00;97486.22;109187;1272;25230;-80
2023/05/19 05:50:38;;;;;;;13.20;9.80;;;;;;;8.61;100.00;97487.93;109132;1266;23858;-80
2023/05/19 05:53:09;;;;;;;11.50;8.70;;;;;;;8.57;100.00;97490.77;109145;1273;22518;-80
2023/05/19 05:55:41;;;;;;;10.70;7.90;;;;;;;8.54;100.00;97490.05;109179;1273;22530;-80
2023/05/19 05:58:13;;;;;;;12.90;8.60;;;;;;;8.57;100.00;97487.65;109174;1250;22517;-80
2023/05/19 06:00:47;;;;;;;7.90;7.10;;;;;;;8.58;100.00;97488.04;109098;1273;25691;-80
2023/05/19 06:03:20;;;;;;;14.50;10.60;;;;;;;8.56;100.00;97491.05;109175;1272;25417;-80
2023/05/19 06:05:51;;;;;;;14.90;9.80;;;;;;;8.58;100.00;97491.63;109164;1266;23041;-80
2023/05/19 06:08:22;;;;;;;13.50;10.20;;;;;;;8.61;100.00;97491.38;109146;1273;23818;-80
2023/05/19 06:10:53;;;;;;;15.20;11.70;;;;;;;8.61;100.00;97495.17;109131;1266;22514;-80
2023/05/19 06:13:24;;;;;;;47.30;24.20;;;;;;;8.65;100.00;97497.33;109153;1273;23831;-80
2023/05/19 06:15:55;;;;;;;17.80;11.80;;;;;;;8.70;100.00;97499.50;109181;1266;22709;-80
2023/05/19 06:18:26;;;;;;;11.00;8.30;;;;;;;8.78;100.00;97500.84;109151;1272;22552;-80
2023/05/19 06:20:57;;;;;;;9.30;7.60;;;;;;;8.88;100.00;97503.63;109191;1270;25262;-80
2023/05/19 06:23:30;;;;;;;10.70;7.70;;;;;;;8.97;100.00;97505.99;109147;1272;24314;-80
2023/05/19 06:26:00;;;;;;;12.50;8.90;;;;;;;9.05;100.00;97507.42;109189;1272;24225;-80
2023/05/19 06:28:31;;;;;;;9.20;7.10;;;;;;;9.08;100.00;97506.88;109159;1250;22515;-80
2023/05/19 06:31:02;;;;;;;10.80;8.50;;;;;;;9.02;100.00;97507.76;109172;1272;24269;-80
2023/05/19 06:33:33;;;;;;;15.40;11.20;;;;;;;8.99;100.00;97504.15;109159;1272;24205;-80
2023/05/19 06:36:05;;;;;;;20.80;17.00;;;;;;;9.05;100.00;97511.29;109201;1269;22685;-80
2023/05/19 06:38:36;;;;;;;9.00;7.40;;;;;;;9.09;100.00;97511.27;109139;1272;24189;-80
2023/05/19 06:41:07;;;;;;;12.30;9.70;;;;;;;9.10;100.00;97515.94;109175;1272;25358;-80
2023/05/19 06:43:38;;;;;;;9.00;7.30;;;;;;;9.11;100.00;97516.75;109151;1269;22560;-80
2023/05/19 06:46:09;;;;;;;9.30;6.30;;;;;;;9.13;100.00;97513.91;109158;1272;22588;-80
2023/05/19 06:48:40;;;;;;;7.80;6.00;;;;;;;9.10;100.00;97514.13;109162;1266;24151;-80
2023/05/19 06:51:11;;;;;;;6.80;5.20;;;;;;;9.03;100.00;97513.02;109128;1272;24344;-80
2023/05/19 06:53:42;;;;;;;7.10;5.50;;;;;;;9.03;100.00;97513.27;109200;1269;22559;-80
2023/05/19 06:56:13;;;;;;;6.80;4.90;;;;;;;9.02;100.00;97514.85;109170;1266;22699;-80
2023/05/19 06:58:45;;;;;;;5.40;4.70;;;;;;;9.03;100.00;97515.71;109174;1266;24309;-80
2023/05/19 07:01:16;;;;;;;7.20;5.40;;;;;;;9.13;100.00;97519.68;109093;1272;22557;-80
2023/05/19 07:03:47;;;;;;;7.40;5.50;;;;;;;9.15;100.00;97517.55;109166;1273;24327;-80
2023/05/19 07:06:18;;;;;;;9.30;6.40;;;;;;;9.13;100.00;97514.98;109141;1269;22480;-80
2023/05/19 07:08:49;;;;;;;6.90;6.20;;;;;;;9.20;100.00;97516.38;109173;1272;24212;-80
2023/05/19 07:11:20;;;;;;;7.60;6.00;;;;;;;9.26;100.00;97517.34;109117;1273;23269;-80
2023/05/19 07:13:51;;;;;;;7.30;5.80;;;;;;;9.25;100.00;97518.55;109134;1265;22566;-80
2023/05/19 07:16:22;;;;;;;7.80;6.00;;;;;;;9.24;100.00;97522.73;109147;1273;22552;-80
2023/05/19 07:18:52;;;;;;;8.20;7.00;;;;;;;9.16;100.00;97515.77;109135;1266;22469;-80
2023/05/19 07:21:23;;;;;;;8.00;6.70;;;;;;;9.11;100.00;97516.38;109156;1266;24181;-80
2023/05/19 07:23:54;;;;;;;7.50;6.00;;;;;;;9.04;100.00;97513.70;109173;1250;22544;-80
2023/05/19 07:26:26;;;;;;;8.40;6.30;;;;;;;9.03;100.00;97520.26;109160;1272;22554;-80
2023/05/19 07:28:57;;;;;;;7.80;6.40;;;;;;;9.09;100.00;97516.98;109191;1272;24398;-80
2023/05/19 07:31:28;;;;;;;8.70;6.20;;;;;;;9.13;100.00;97517.81;109138;1266;22511;-80
2023/05/19 07:33:59;;;;;;;8.50;6.40;;;;;;;9.17;100.00;97516.98;109151;1272;22598;-80
2023/05/19 07:36:30;;;;;;;9.00;6.50;;;;;;;9.17;100.00;97515.77;109187;1272;22520;-80
2023/05/19 07:39:01;;;;;;;11.90;8.70;;;;;;;9.13;100.00;97513.39;109178;1272;23085;-80
2023/05/19 07:41:32;;;;;;;15.70;10.00;;;;;;;9.19;100.00;97512.41;109172;1268;22550;-81
2023/05/19 07:44:06;;;;;;;19.60;12.80;;;;;;;9.22;100.00;97511.70;109146;1272;23264;-80
2023/05/19 07:46:37;;;;;;;9.50;7.40;;;;;;;9.31;100.00;97513.40;109176;1272;22515;-80
2023/05/19 07:49:08;;;;;;;10.30;7.20;;;;;;;9.21;100.00;97510.84;109171;1265;22516;-81
2023/05/19 07:51:40;;;;;;;33.10;17.70;;;;;;;9.17;100.00;97512.60;109161;1272;23732;-80
2023/05/19 07:54:11;;;;;;;49.90;27.60;;;;;;;9.31;100.00;97512.23;109183;1273;22574;-80
2023/05/19 07:56:42;;;;;;;9.70;7.10;;;;;;;9.39;100.00;97508.18;109159;1272;24458;-80
2023/05/19 07:59:13;;;;;;;10.50;7.50;;;;;;;9.30;100.00;97511.10;109128;1269;24176;-80
2023/05/19 08:01:44;;;;;;;12.20;9.60;;;;;;;9.28;100.00;97513.09;109222;1272;23448;-80
2023/05/19 08:04:15;;;;;;;11.60;9.90;;;;;;;9.38;100.00;97510.71;109163;1272;22520;-80
2023/05/19 08:06:46;;;;;;;17.00;14.70;;;;;;;9.46;100.00;97511.77;109147;1272;22517;-80
2023/05/19 08:09:17;;;;;;;13.50;10.20;;;;;;;9.56;100.00;97514.09;109114;1266;22512;-80
2023/05/19 08:11:48;;;;;;;11.10;8.90;;;;;;;9.67;100.00;97513.13;109159;1272;22714;-80
2023/05/19 08:14:21;;;;;;;10.70;8.20;;;;;;;9.78;100.00;97508.85;109191;1272;22543;-80
2023/05/19 08:16:52;;;;;;;10.70;8.70;;;;;;;9.92;100.00;97509.56;109153;1273;23572;-80
2023/05/19 08:19:23;;;;;;;12.20;9.40;;;;;;;10.01;100.00;97509.53;109153;1266;22529;-80
2023/05/19 08:21:55;;;;;;;12.00;9.50;;;;;;;10.07;100.00;97505.56;109158;1260;23875;-80
2023/05/19 08:24:28;;;;;;;10.10;8.50;;;;;;;10.14;100.00;97503.70;109154;1266;22518;-80
2023/05/19 08:26:59;;;;;;;10.50;7.80;;;;;;;10.17;100.00;97503.15;109136;1273;22548;-80
2023/05/19 08:29:30;;;;;;;9.50;7.60;;;;;;;10.17;100.00;97509.14;109158;1273;23789;-80
2023/05/19 08:32:01;;;;;;;10.90;7.20;;;;;;;10.11;100.00;97510.66;109192;1266;24210;-80
2023/05/19 08:34:32;;;;;;;10.30;8.00;;;;;;;10.08;100.00;97511.13;109178;1266;25412;-80
2023/05/19 08:37:03;;;;;;;11.30;8.20;;;;;;;10.09;100.00;97509.86;109113;1268;22740;-80
2023/05/19 08:39:35;;;;;;;10.60;8.10;;;;;;;10.08;100.00;97508.85;109155;1272;22554;-80
2023/05/19 08:42:08;;;;;;;11.90;8.40;;;;;;;10.17;100.00;97517.55;109110;1273;25495;-80
2023/05/19 08:44:41;;;;;;;10.70;8.60;;;;;;;10.33;100.00;97516.07;109135;1269;22517;-80
2023/05/19 08:47:12;;;;;;;10.50;7.80;;;;;;;10.50;100.00;97516.40;109251;1272;22522;-80
2023/05/19 08:49:49;;;;;;;10.30;8.70;;;;;;;10.60;100.00;97517.33;109178;1272;25414;-80
2023/05/19 08:52:32;;;;;;;12.30;8.40;;;;;;;10.64;100.00;97515.64;109157;1261;23987;-80
2023/05/19 08:55:09;;;;;;;11.10;8.20;;;;;;;10.68;100.00;97516.30;109187;1273;22576;-80
2023/05/19 08:57:41;;;;;;;10.60;8.00;;;;;;;10.63;100.00;97515.05;109178;1272;24360;-80
2023/05/19 09:00:16;;;;;;;9.50;8.20;;;;;;;10.63;100.00;97512.36;109149;1266;24297;-80
2023/05/19 09:02:48;;;;;;;10.70;9.10;;;;;;;10.59;100.00;97513.82;109177;1272;22584;-80
2023/05/19 09:05:20;;;;;;;10.30;8.30;;;;;;;10.61;100.00;97514.46;109158;1272;22500;-80
2023/05/19 09:07:51;;;;;;;10.90;8.60;;;;;;;10.53;100.00;97516.84;109189;1266;22577;-80
2023/05/19 09:10:22;;;;;;;9.80;7.40;;;;;;;10.58;100.00;97520.17;109151;1265;22653;-80
2023/05/19 09:12:53;;;;;;;12.80;9.90;;;;;;;10.68;100.00;97519.05;109159;1273;22597;-80
2023/05/19 09:15:27;;;;;;;10.30;8.30;;;;;;;10.80;100.00;97513.09;109205;1272;24035;-80
2023/05/19 09:18:13;;;;;;;13.00;10.20;;;;;;;10.93;100.00;97510.44;109191;1272;22467;-80
2023/05/19 09:20:46;;;;;;;11.90;10.50;;;;;;;11.06;100.00;97511.58;109160;1267;22515;-80
2023/05/19 09:23:17;;;;;;;10.40;8.50;;;;;;;11.15;100.00;97509.91;109177;1273;22511;-80
2023/05/19 09:25:53;;;;;;;11.20;9.10;;;;;;;11.30;100.00;97507.69;109180;1272;22607;-80
2023/05/19 09:28:29;;;;;;;11.70;8.40;;;;;;;11.41;100.00;97511.66;109144;1268;24171;-80
2023/05/19 09:31:05;;;;;;;10.30;8.00;;;;;;;11.43;100.00;97517.24;109162;1266;25179;-80
2023/05/19 09:33:38;;;;;;;10.50;8.60;;;;;;;11.47;100.00;97514.22;109215;1272;22544;-80
2023/05/19 09:36:10;;;;;;;9.90;8.50;;;;;;;11.51;100.00;97516.66;109169;1266;22473;-80
2023/05/19 09:38:41;;;;;;;10.80;8.90;;;;;;;11.59;100.00;97521.11;109155;1270;23745;-80
2023/05/19 09:41:16;;;;;;;10.90;8.60;;;;;;;11.68;100.00;97516.88;109151;1249;22522;-80
2023/05/19 09:43:55;;;;;;;9.20;7.50;;;;;;;11.73;100.00;97516.30;109171;1269;22608;-80
2023/05/19 09:46:29;;;;;;;8.50;7.50;;;;;;;11.74;100.00;97515.51;109119;1273;22631;-80
2023/05/19 09:49:00;;;;;;;9.50;7.70;;;;;;;11.80;100.00;97513.89;109195;1272;23208;-80
2023/05/19 09:51:31;;;;;;;9.50;8.10;;;;;;;11.87;100.00;97513.77;109196;1269;24314;-80
2023/05/19 09:54:03;;;;;;;10.30;8.40;;;;;;;11.93;100.00;97512.90;109166;1272;22467;-80
2023/05/19 09:56:35;;;;;;;10.50;8.90;;;;;;;11.95;100.00;97512.74;109204;1272;23208;-80
2023/05/19 09:59:07;;;;;;;10.30;8.70;;;;;;;11.98;100.00;97515.15;109142;1273;23833;-80
2023/05/19 10:01:42;;;;;;;11.30;8.90;;;;;;;12.04;100.00;97517.33;109189;1250;22516;-80
2023/05/19 10:04:15;;;;;;;10.90;7.90;;;;;;;12.10;100.00;97512.66;109145;1273;22468;-81
2023/05/19 10:06:46;;;;;;;9.70;8.00;;;;;;;12.14;100.00;97510.69;109151;1266;22561;-80
2023/05/19 10:09:17;;;;;;;11.00;8.50;;;;;;;12.11;100.00;97515.48;109131;1272;24023;-80
2023/05/19 10:11:49;;;;;;;9.60;8.30;;;;;;;12.00;100.00;97513.72;109138;1272;22571;-80
2023/05/19 10:14:22;;;;;;;10.20;8.50;;;;;;;11.92;100.00;97512.53;109176;1266;25511;-80
2023/05/19 10:16:54;;;;;;;9.40;8.40;;;;;;;11.85;100.00;97513.70;109137;1273;25948;-80
2023/05/19 10:19:27;;;;;;;10.20;7.90;;;;;;;11.80;100.00;97516.39;109179;1272;22823;-80
2023/05/19 10:21:58;;;;;;;12.60;10.00;;;;;;;11.77;100.00;97521.25;109195;1272;22521;-80
2023/05/19 10:24:29;;;;;;;10.30;8.80;;;;;;;11.76;100.00;97519.98;109204;1266;22534;-80
2023/05/19 10:27:03;;;;;;;8.90;7.20;;;;;;;11.81;100.00;97521.02;109149;1272;22514;-80
2023/05/19 10:29:36;;;;;;;10.10;8.00;;;;;;;11.73;100.00;97516.30;109149;1272;25108;-80
2023/05/19 10:32:11;;;;;;;11.00;8.10;;;;;;;11.56;99.78;97514.45;109187;1267;22539;-80
2023/05/19 10:35:06;;;;;;;12.80;8.10;;;;;;;11.23;99.47;97520.61;109192;1269;23329;-80
2023/05/19 10:37:45;;;;;;;10.90;8.80;;;;;;;11.18;100.00;97517.30;109164;1273;22510;-80
2023/05/19 10:40:26;;;;;;;12.10;8.10;;;;;;;11.20;100.00;97516.36;109153;1273;25946;-80
2023/05/19 10:43:07;;;;;;;9.30;7.90;;;;;;;11.24;100.00;97515.69;109174;1272;22471;-80
2023/05/19 10:45:46;;;;;;;9.80;7.60;;;;;;;11.33;100.00;97512.95;109172;1272;22710;-80
2023/05/19 10:48:19;;;;;;;10.60;8.20;;;;;;;11.28;100.00;97515.50;109196;1272;22494;-80
2023/05/19 10:50:53;;;;;;;10.80;7.90;;;;;;;11.35;100.00;97518.69;109161;1272;22521;-80
2023/05/19 10:53:33;;;;;;;10.50;8.60;;;;;;;11.48;100.00;97517.77;109185;1272;23543;-80
2023/05/19 10:56:02;;;;;;;;;;;;;;;11.60;100.00;97517.98;109158;1273;22460;-80
2023/05/19 10:58:49;;;;;;;10.90;8.40;;;;;;;11.68;100.00;97514.60;109169;1272;24879;-80
2023/05/19 11:01:23;;;;;;;11.30;8.10;;;;;;;11.69;100.00;97513.95;109142;1269;25287;-80
2023/05/19 11:03:56;;;;;;;9.10;7.30;;;;;;;11.73;100.00;97513.77;109169;1272;22524;-80
2023/05/19 11:06:31;;;;;;;8.90;7.60;;;;;;;11.77;100.00;97515.19;109153;1269;22532;-80
2023/05/19 11:09:12;;;;;;;10.70;7.70;;;;;;;11.84;100.00;97511.57;109168;1265;22649;-79
2023/05/19 11:11:48;;;;;;;10.10;8.10;;;;;;;11.88;100.00;97511.79;109121;1273;24330;-80
2023/05/19 11:14:23;;;;;;;8.60;7.60;;;;;;;11.87;100.00;97510.84;109215;1269;22583;-80
2023/05/19 11:16:57;;;;;;;9.90;7.60;;;;;;;11.87;100.00;97509.98;109160;1267;22742;-80
2023/05/19 11:19:32;;;;;;;10.00;8.10;;;;;;;11.79;100.00;97509.95;109190;1266;23556;-80
2023/05/19 11:22:12;;;;;;;10.10;8.30;;;;;;;11.71;100.00;97514.23;109129;1272;22518;-81
2023/05/19 11:24:48;;;;;;;11.50;8.80;;;;;;;11.61;99.98;97514.73;109157;1273;22910;-80
2023/05/19 11:27:31;;;;;;;10.70;9.00;;;;;;;11.65;100.00;97513.73;109162;1272;22469;-80
2023/05/19 11:30:13;;;;;;;10.90;8.20;;;;;;;11.73;100.00;97513.48;109191;1273;22472;-80
2023/05/19 11:32:47;;;;;;;10.60;9.10;;;;;;;11.61;99.97;97516.12;109199;1272;22517;-80
2023/05/19 11:35:20;;;;;;;11.60;8.80;;;;;;;11.67;100.00;97514.22;109152;1273;22654;-80
2023/05/19 11:37:54;;;;;;;9.90;8.70;;;;;;;11.79;100.00;97514.35;109159;1272;22521;-80